sensor_id;sensor_type;location;lat;lon;timestamp;temperature;humidity
25568;DHT22;13455;51.480;7.594;2024-01-30T00:01:16;8.00;99.90
25568;DHT22;13455;51.480;7.594;2024-01-30T00:03:41;8.00;99.90
25568;DHT22;13455;51.480;7.594;2024-01-30T00:06:08;8.00;99.90
25568;DHT22;13455;51.480;7.594;2024-01-30T00:08:34;7.90;99.90
25568;DHT22;13455;51.480;7.594;2024-01-30T00:10:59;7.90;99.90
25568;DHT22;13455;51.480;7.594;2024-01-30T00:13:26;7.90;99.90
25568;DHT22;13455;51.480;7.594;2024-01-30T00:15:52;7.90;99.90
25568;DHT22;13455;51.480;7.594;2024-01-30T00:18:18;7.80;99.90
25568;DHT22;13455;51.480;7.594;2024-01-30T00:20:44;7.70;99.90
25568;DHT22;13455;51.480;7.594;2024-01-30T00:23:09;7.80;99.90
25568;DHT22;13455;51.480;7.594;2024-01-30T00:25:35;7.80;99.90
25568;DHT22;13455;51.480;7.594;2024-01-30T00:28:00;7.60;99.90
25568;DHT22;13455;51.480;7.594;2024-01-30T00:32:53;7.80;99.90
25568;DHT22;13455;51.480;7.594;2024-01-30T00:35:19;7.80;99.90
25568;DHT22;13455;51.480;7.594;2024-01-30T00:37:45;7.80;99.90
25568;DHT22;13455;51.480;7.594;2024-01-30T00:40:11;7.70;99.90
25568;DHT22;13455;51.480;7.594;2024-01-30T00:42:41;7.70;99.90
25568;DHT22;13455;51.480;7.594;2024-01-30T00:45:12;7.80;99.90
25568;DHT22;13455;51.480;7.594;2024-01-30T00:47:38;8.60;99.90
25568;DHT22;13455;51.480;7.594;2024-01-30T00:50:04;7.80;99.90
25568;DHT22;13455;51.480;7.594;2024-01-30T00:52:30;7.70;99.90
25568;DHT22;13455;51.480;7.594;2024-01-30T00:54:56;7.80;99.90
25568;DHT22;13455;51.480;7.594;2024-01-30T00:57:21;7.80;99.90
25568;DHT22;13455;51.480;7.594;2024-01-30T00:59:47;7.70;99.90
25568;DHT22;13455;51.480;7.594;2024-01-30T01:02:12;7.80;99.90
25568;DHT22;13455;51.480;7.594;2024-01-30T01:04:39;7.80;99.90
25568;DHT22;13455;51.480;7.594;2024-01-30T01:07:04;7.80;99.90
25568;DHT22;13455;51.480;7.594;2024-01-30T01:09:30;8.00;99.90
25568;DHT22;13455;51.480;7.594;2024-01-30T01:11:55;8.00;99.90
25568;DHT22;13455;51.480;7.594;2024-01-30T01:14:21;8.00;99.90
25568;DHT22;13455;51.480;7.594;2024-01-30T01:16:47;7.90;99.90
25568;DHT22;13455;51.480;7.594;2024-01-30T01:19:12;8.20;99.90
25568;DHT22;13455;51.480;7.594;2024-01-30T08:27:54;9.10;99.90
25568;DHT22;13455;51.480;7.594;2024-01-30T08:30:19;9.10;99.90
25568;DHT22;13455;51.480;7.594;2024-01-30T08:32:45;9.10;99.90
25568;DHT22;13455;51.480;7.594;2024-01-30T08:35:11;9.10;99.90
25568;DHT22;13455;51.480;7.594;2024-01-30T08:37:39;9.10;99.90
25568;DHT22;13455;51.480;7.594;2024-01-30T08:40:05;9.20;99.90
25568;DHT22;13455;51.480;7.594;2024-01-30T08:42:30;9.20;99.90
25568;DHT22;13455;51.480;7.594;2024-01-30T08:44:56;9.30;99.90
25568;DHT22;13455;51.480;7.594;2024-01-30T08:47:22;9.30;99.90
25568;DHT22;13455;51.480;7.594;2024-01-30T08:49:47;9.40;99.90
25568;DHT22;13455;51.480;7.594;2024-01-30T08:52:13;9.40;99.90
25568;DHT22;13455;51.480;7.594;2024-01-30T08:54:38;9.50;99.90
25568;DHT22;13455;51.480;7.594;2024-01-30T08:57:05;9.50;99.90
25568;DHT22;13455;51.480;7.594;2024-01-30T08:59:30;9.80;99.90
25568;DHT22;13455;51.480;7.594;2024-01-30T09:01:56;10.30;99.90
25568;DHT22;13455;51.480;7.594;2024-01-30T09:06:49;9.70;99.90
25568;DHT22;13455;51.480;7.594;2024-01-30T09:09:15;9.60;99.90
25568;DHT22;13455;51.480;7.594;2024-01-30T09:11:41;10.00;99.90
25568;DHT22;13455;51.480;7.594;2024-01-30T09:14:07;9.20;99.90
25568;DHT22;13455;51.480;7.594;2024-01-30T09:16:32;9.30;99.90
25568;DHT22;13455;51.480;7.594;2024-01-30T09:18:58;9.80;99.90
25568;DHT22;13455;51.480;7.594;2024-01-30T09:21:23;10.00;99.90
25568;DHT22;13455;51.480;7.594;2024-01-30T09:23:49;9.90;99.90
25568;DHT22;13455;51.480;7.594;2024-01-30T09:26:15;9.30;99.90
25568;DHT22;13455;51.480;7.594;2024-01-30T09:28:40;10.00;99.90
25568;DHT22;13455;51.480;7.594;2024-01-30T09:31:11;10.00;99.90
25568;DHT22;13455;51.480;7.594;2024-01-30T09:33:37;10.00;99.90
25568;DHT22;13455;51.480;7.594;2024-01-30T09:36:02;10.10;99.90
25568;DHT22;13455;51.480;7.594;2024-01-30T09:38:28;10.10;99.90
25568;DHT22;13455;51.480;7.594;2024-01-30T09:40:54;10.10;99.90
25568;DHT22;13455;51.480;7.594;2024-01-30T09:43:23;10.20;99.90
25568;DHT22;13455;51.480;7.594;2024-01-30T09:45:50;10.20;99.90
25568;DHT22;13455;51.480;7.594;2024-01-30T09:48:16;10.20;99.90
25568;DHT22;13455;51.480;7.594;2024-01-30T09:50:41;10.30;99.90
25568;DHT22;13455;51.480;7.594;2024-01-30T09:53:08;10.40;99.90
25568;DHT22;13455;51.480;7.594;2024-01-30T10:10:24;10.80;99.90
25568;DHT22;13455;51.480;7.594;2024-01-30T10:12:50;11.00;99.90
25568;DHT22;13455;51.480;7.594;2024-01-30T10:15:15;10.90;99.90
25568;DHT22;13455;51.480;7.594;2024-01-30T10:17:42;10.80;99.90
25568;DHT22;13455;51.480;7.594;2024-01-30T10:34:47;11.30;99.90
25568;DHT22;13455;51.480;7.594;2024-01-30T10:37:12;11.20;99.90
25568;DHT22;13455;51.480;7.594;2024-01-30T10:39:42;11.30;99.90
25568;DHT22;13455;51.480;7.594;2024-01-30T10:42:16;11.30;99.90
25568;DHT22;13455;51.480;7.594;2024-01-30T10:47:28;11.20;99.90
25568;DHT22;13455;51.480;7.594;2024-01-30T10:49:55;11.50;99.90
25568;DHT22;13455;51.480;7.594;2024-01-30T10:52:23;11.50;99.90
25568;DHT22;13455;51.480;7.594;2024-01-30T10:54:50;11.50;99.90
25568;DHT22;13455;51.480;7.594;2024-01-30T10:57:17;11.70;99.90
25568;DHT22;13455;51.480;7.594;2024-01-30T10:59:43;11.70;99.90
25568;DHT22;13455;51.480;7.594;2024-01-30T11:04:37;11.70;99.90
25568;DHT22;13455;51.480;7.594;2024-01-30T11:07:13;12.10;99.90
25568;DHT22;13455;51.480;7.594;2024-01-30T11:09:40;12.00;99.90
25568;DHT22;13455;51.480;7.594;2024-01-30T11:17:05;12.30;99.90
25568;DHT22;13455;51.480;7.594;2024-01-30T11:19:31;12.30;99.90
25568;DHT22;13455;51.480;7.594;2024-01-30T11:24:24;12.70;99.90
25568;DHT22;13455;51.480;7.594;2024-01-30T11:26:55;12.90;99.90
25568;DHT22;13455;51.480;7.594;2024-01-30T11:29:25;13.00;99.90
25568;DHT22;13455;51.480;7.594;2024-01-30T11:31:54;13.20;99.90
25568;DHT22;13455;51.480;7.594;2024-01-30T11:39:36;13.60;99.90
25568;DHT22;13455;51.480;7.594;2024-01-30T11:46:56;14.00;99.90
25568;DHT22;13455;51.480;7.594;2024-01-30T11:49:23;14.00;99.90
25568;DHT22;13455;51.480;7.594;2024-01-30T11:51:48;14.10;99.90
25568;DHT22;13455;51.480;7.594;2024-01-30T11:56:42;14.20;99.90
25568;DHT22;13455;51.480;7.594;2024-01-30T12:01:34;14.60;99.90
25568;DHT22;13455;51.480;7.594;2024-01-30T12:04:00;14.80;99.90
25568;DHT22;13455;51.480;7.594;2024-01-30T12:06:26;14.60;99.90
25568;DHT22;13455;51.480;7.594;2024-01-30T12:09:01;14.70;99.90
25568;DHT22;13455;51.480;7.594;2024-01-30T12:11:29;14.80;99.90
25568;DHT22;13455;51.480;7.594;2024-01-30T12:13:55;14.90;99.90
25568;DHT22;13455;51.480;7.594;2024-01-30T12:16:21;15.00;99.90
25568;DHT22;13455;51.480;7.594;2024-01-30T12:18:47;14.70;99.90
25568;DHT22;13455;51.480;7.594;2024-01-30T12:21:16;14.80;99.90
25568;DHT22;13455;51.480;7.594;2024-01-30T12:23:42;14.70;99.90
25568;DHT22;13455;51.480;7.594;2024-01-30T12:26:08;14.80;99.90
25568;DHT22;13455;51.480;7.594;2024-01-30T12:28:34;14.70;99.90
25568;DHT22;13455;51.480;7.594;2024-01-30T12:31:05;14.70;99.90
25568;DHT22;13455;51.480;7.594;2024-01-30T12:33:31;14.70;99.90
25568;DHT22;13455;51.480;7.594;2024-01-30T12:35:57;14.40;99.90
25568;DHT22;13455;51.480;7.594;2024-01-30T12:38:27;15.00;99.90
25568;DHT22;13455;51.480;7.594;2024-01-30T12:40:56;14.70;99.90
25568;DHT22;13455;51.480;7.594;2024-01-30T12:43:22;14.70;99.90
25568;DHT22;13455;51.480;7.594;2024-01-30T12:45:49;14.70;99.90
25568;DHT22;13455;51.480;7.594;2024-01-30T12:48:15;14.60;99.90
25568;DHT22;13455;51.480;7.594;2024-01-30T12:50:41;14.40;99.90
25568;DHT22;13455;51.480;7.594;2024-01-30T12:53:06;14.40;99.90
25568;DHT22;13455;51.480;7.594;2024-01-30T12:55:32;14.40;99.90
25568;DHT22;13455;51.480;7.594;2024-01-30T12:57:58;14.40;99.90
25568;DHT22;13455;51.480;7.594;2024-01-30T13:00:23;14.60;99.90
25568;DHT22;13455;51.480;7.594;2024-01-30T13:02:49;14.30;99.90
25568;DHT22;13455;51.480;7.594;2024-01-30T13:05:15;14.00;99.90
25568;DHT22;13455;51.480;7.594;2024-01-30T13:07:41;14.20;99.90
25568;DHT22;13455;51.480;7.594;2024-01-30T13:10:06;13.90;99.90
25568;DHT22;13455;51.480;7.594;2024-01-30T13:12:32;13.70;99.90
25568;DHT22;13455;51.480;7.594;2024-01-30T13:14:59;13.80;99.90
25568;DHT22;13455;51.480;7.594;2024-01-30T13:17:26;13.90;99.90
25568;DHT22;13455;51.480;7.594;2024-01-30T13:19:52;13.90;99.90
25568;DHT22;13455;51.480;7.594;2024-01-30T13:22:19;13.70;99.90
25568;DHT22;13455;51.480;7.594;2024-01-30T13:24:47;13.70;99.90
25568;DHT22;13455;51.480;7.594;2024-01-30T13:27:12;13.90;99.90
25568;DHT22;13455;51.480;7.594;2024-01-30T13:29:38;13.60;99.90
25568;DHT22;13455;51.480;7.594;2024-01-30T13:32:04;13.60;99.90
25568;DHT22;13455;51.480;7.594;2024-01-30T13:34:30;13.40;99.90
25568;DHT22;13455;51.480;7.594;2024-01-30T13:36:55;13.50;99.90
25568;DHT22;13455;51.480;7.594;2024-01-30T13:39:21;13.60;99.90
25568;DHT22;13455;51.480;7.594;2024-01-30T13:41:47;13.10;99.90
25568;DHT22;13455;51.480;7.594;2024-01-30T13:44:14;13.40;99.90
25568;DHT22;13455;51.480;7.594;2024-01-30T13:46:41;13.60;99.90
25568;DHT22;13455;51.480;7.594;2024-01-30T13:49:07;13.50;99.90
25568;DHT22;13455;51.480;7.594;2024-01-30T13:51:33;13.00;99.90
25568;DHT22;13455;51.480;7.594;2024-01-30T13:53:58;13.30;99.90
25568;DHT22;13455;51.480;7.594;2024-01-30T14:20:45;12.70;99.90
25568;DHT22;13455;51.480;7.594;2024-01-30T14:23:11;12.90;99.90
25568;DHT22;13455;51.480;7.594;2024-01-30T14:25:37;12.90;99.90
25568;DHT22;13455;51.480;7.594;2024-01-30T14:28:02;12.70;99.90
25568;DHT22;13455;51.480;7.594;2024-01-30T14:30:28;12.70;99.90
25568;DHT22;13455;51.480;7.594;2024-01-30T14:32:53;12.60;99.90
25568;DHT22;13455;51.480;7.594;2024-01-30T14:35:20;12.60;99.90
25568;DHT22;13455;51.480;7.594;2024-01-30T14:37:46;12.60;99.90
25568;DHT22;13455;51.480;7.594;2024-01-30T14:40:11;12.50;99.90
25568;DHT22;13455;51.480;7.594;2024-01-30T14:42:37;12.60;99.90
25568;DHT22;13455;51.480;7.594;2024-01-30T14:47:29;12.40;99.90
25568;DHT22;13455;51.480;7.594;2024-01-30T14:49:56;12.40;99.90
25568;DHT22;13455;51.480;7.594;2024-01-30T14:52:22;12.50;99.90
25568;DHT22;13455;51.480;7.594;2024-01-30T14:54:47;12.70;99.90
25568;DHT22;13455;51.480;7.594;2024-01-30T14:57:13;12.50;99.90
25568;DHT22;13455;51.480;7.594;2024-01-30T14:59:39;12.50;99.90
25568;DHT22;13455;51.480;7.594;2024-01-30T15:02:06;12.40;99.90
25568;DHT22;13455;51.480;7.594;2024-01-30T15:04:31;12.50;99.90
25568;DHT22;13455;51.480;7.594;2024-01-30T15:06:57;12.40;99.90
25568;DHT22;13455;51.480;7.594;2024-01-30T15:09:23;12.50;99.90
25568;DHT22;13455;51.480;7.594;2024-01-30T15:11:51;12.50;99.90
25568;DHT22;13455;51.480;7.594;2024-01-30T15:14:17;12.40;99.90
25568;DHT22;13455;51.480;7.594;2024-01-30T15:16:42;12.50;99.90
25568;DHT22;13455;51.480;7.594;2024-01-30T15:19:08;12.40;99.90
25568;DHT22;13455;51.480;7.594;2024-01-30T15:21:34;12.00;99.90
25568;DHT22;13455;51.480;7.594;2024-01-30T15:23:59;12.40;99.90
25568;DHT22;13455;51.480;7.594;2024-01-30T15:26:25;12.40;99.90
25568;DHT22;13455;51.480;7.594;2024-01-30T15:28:51;12.40;99.90
25568;DHT22;13455;51.480;7.594;2024-01-30T15:31:17;12.40;99.90
25568;DHT22;13455;51.480;7.594;2024-01-30T15:33:42;12.40;99.90
25568;DHT22;13455;51.480;7.594;2024-01-30T15:36:08;12.30;99.90
25568;DHT22;13455;51.480;7.594;2024-01-30T15:38:43;12.40;99.90
25568;DHT22;13455;51.480;7.594;2024-01-30T15:41:09;12.30;99.90
25568;DHT22;13455;51.480;7.594;2024-01-30T15:43:34;12.30;99.90
25568;DHT22;13455;51.480;7.594;2024-01-30T15:46:01;12.30;99.90
25568;DHT22;13455;51.480;7.594;2024-01-30T15:48:27;12.20;99.90
25568;DHT22;13455;51.480;7.594;2024-01-30T15:50:53;12.20;99.90
25568;DHT22;13455;51.480;7.594;2024-01-30T15:53:21;12.20;99.90
25568;DHT22;13455;51.480;7.594;2024-01-30T15:55:47;12.20;99.90
25568;DHT22;13455;51.480;7.594;2024-01-30T15:58:13;12.10;99.90
25568;DHT22;13455;51.480;7.594;2024-01-30T16:00:39;12.10;99.90
25568;DHT22;13455;51.480;7.594;2024-01-30T16:03:05;12.10;99.90
25568;DHT22;13455;51.480;7.594;2024-01-30T16:05:31;12.10;99.90
25568;DHT22;13455;51.480;7.594;2024-01-30T16:07:56;12.00;99.90
25568;DHT22;13455;51.480;7.594;2024-01-30T16:10:22;12.00;99.90
25568;DHT22;13455;51.480;7.594;2024-01-30T16:12:47;12.00;99.90
25568;DHT22;13455;51.480;7.594;2024-01-30T16:15:14;12.00;99.90
25568;DHT22;13455;51.480;7.594;2024-01-30T16:17:40;12.00;99.90
25568;DHT22;13455;51.480;7.594;2024-01-30T16:20:07;12.00;99.90
25568;DHT22;13455;51.480;7.594;2024-01-30T16:22:33;12.00;99.90
25568;DHT22;13455;51.480;7.594;2024-01-30T16:24:59;11.90;99.90
25568;DHT22;13455;51.480;7.594;2024-01-30T16:27:24;11.90;99.90
25568;DHT22;13455;51.480;7.594;2024-01-30T16:29:50;11.90;99.90
25568;DHT22;13455;51.480;7.594;2024-01-30T16:32:16;11.90;99.90
25568;DHT22;13455;51.480;7.594;2024-01-30T16:34:41;11.80;99.90
25568;DHT22;13455;51.480;7.594;2024-01-30T16:37:07;11.80;99.90
25568;DHT22;13455;51.480;7.594;2024-01-30T16:39:32;11.70;99.90
25568;DHT22;13455;51.480;7.594;2024-01-30T16:41:58;11.70;99.90
25568;DHT22;13455;51.480;7.594;2024-01-30T16:44:24;11.70;99.90
25568;DHT22;13455;51.480;7.594;2024-01-30T16:46:50;11.60;99.90
25568;DHT22;13455;51.480;7.594;2024-01-30T16:49:16;11.60;99.90
25568;DHT22;13455;51.480;7.594;2024-01-30T16:51:42;11.60;99.90
25568;DHT22;13455;51.480;7.594;2024-01-30T16:54:08;11.50;99.90
25568;DHT22;13455;51.480;7.594;2024-01-30T16:56:34;11.50;99.90
25568;DHT22;13455;51.480;7.594;2024-01-30T16:58:59;11.40;99.90
25568;DHT22;13455;51.480;7.594;2024-01-30T17:01:25;11.40;99.90
25568;DHT22;13455;51.480;7.594;2024-01-30T17:03:51;11.40;99.90
25568;DHT22;13455;51.480;7.594;2024-01-30T17:06:16;11.20;99.90
25568;DHT22;13455;51.480;7.594;2024-01-30T17:08:42;11.20;99.90
25568;DHT22;13455;51.480;7.594;2024-01-30T17:11:08;11.20;99.90
25568;DHT22;13455;51.480;7.594;2024-01-30T17:13:35;11.20;99.90
25568;DHT22;13455;51.480;7.594;2024-01-30T17:16:01;11.10;99.90
25568;DHT22;13455;51.480;7.594;2024-01-30T17:18:26;11.10;99.90
25568;DHT22;13455;51.480;7.594;2024-01-30T17:20:52;11.10;99.90
25568;DHT22;13455;51.480;7.594;2024-01-30T17:23:18;11.10;99.90
25568;DHT22;13455;51.480;7.594;2024-01-30T17:25:47;11.10;99.90
25568;DHT22;13455;51.480;7.594;2024-01-30T17:28:13;11.00;99.90
25568;DHT22;13455;51.480;7.594;2024-01-30T17:30:39;11.00;99.90
25568;DHT22;13455;51.480;7.594;2024-01-30T17:33:04;10.90;99.90
25568;DHT22;13455;51.480;7.594;2024-01-30T17:35:30;10.90;99.90
25568;DHT22;13455;51.480;7.594;2024-01-30T17:37:56;10.80;99.90
25568;DHT22;13455;51.480;7.594;2024-01-30T17:40:21;10.80;99.90
25568;DHT22;13455;51.480;7.594;2024-01-30T17:42:47;10.80;99.90
25568;DHT22;13455;51.480;7.594;2024-01-30T17:45:12;10.70;99.90
25568;DHT22;13455;51.480;7.594;2024-01-30T17:47:38;10.70;99.90
25568;DHT22;13455;51.480;7.594;2024-01-30T17:50:04;10.70;99.90
25568;DHT22;13455;51.480;7.594;2024-01-30T17:52:30;10.60;99.90
25568;DHT22;13455;51.480;7.594;2024-01-30T17:54:56;10.60;99.90
25568;DHT22;13455;51.480;7.594;2024-01-30T17:57:22;10.60;99.90
25568;DHT22;13455;51.480;7.594;2024-01-30T17:59:48;10.60;99.90
25568;DHT22;13455;51.480;7.594;2024-01-30T18:02:14;10.60;99.90
25568;DHT22;13455;51.480;7.594;2024-01-30T18:04:40;10.50;99.90
25568;DHT22;13455;51.480;7.594;2024-01-30T18:07:06;10.50;99.90
25568;DHT22;13455;51.480;7.594;2024-01-30T18:09:32;10.50;99.90
25568;DHT22;13455;51.480;7.594;2024-01-30T18:11:57;10.40;99.90
25568;DHT22;13455;51.480;7.594;2024-01-30T18:14:23;10.40;99.90
25568;DHT22;13455;51.480;7.594;2024-01-30T18:16:49;10.40;99.90
25568;DHT22;13455;51.480;7.594;2024-01-30T18:19:14;10.40;99.90
25568;DHT22;13455;51.480;7.594;2024-01-30T18:21:41;10.50;99.90
25568;DHT22;13455;51.480;7.594;2024-01-30T18:24:06;10.30;99.90
25568;DHT22;13455;51.480;7.594;2024-01-30T18:26:32;10.30;99.90
25568;DHT22;13455;51.480;7.594;2024-01-30T18:28:58;10.30;99.90
25568;DHT22;13455;51.480;7.594;2024-01-30T18:31:24;10.30;99.90
25568;DHT22;13455;51.480;7.594;2024-01-30T18:33:50;10.30;99.90
25568;DHT22;13455;51.480;7.594;2024-01-30T18:36:18;10.20;99.90
25568;DHT22;13455;51.480;7.594;2024-01-30T18:38:44;10.20;99.90
25568;DHT22;13455;51.480;7.594;2024-01-30T18:41:10;10.20;99.90
25568;DHT22;13455;51.480;7.594;2024-01-30T18:43:35;10.20;99.90
25568;DHT22;13455;51.480;7.594;2024-01-30T18:46:01;10.20;99.90
25568;DHT22;13455;51.480;7.594;2024-01-30T18:48:27;10.10;99.90
25568;DHT22;13455;51.480;7.594;2024-01-30T18:50:52;10.10;99.90
25568;DHT22;13455;51.480;7.594;2024-01-30T18:53:18;10.10;99.90
25568;DHT22;13455;51.480;7.594;2024-01-30T18:55:44;10.10;99.90
25568;DHT22;13455;51.480;7.594;2024-01-30T18:58:09;10.10;99.90
25568;DHT22;13455;51.480;7.594;2024-01-30T19:00:35;10.10;99.90
25568;DHT22;13455;51.480;7.594;2024-01-30T19:03:06;10.00;99.90
25568;DHT22;13455;51.480;7.594;2024-01-30T19:05:31;10.00;99.90
25568;DHT22;13455;51.480;7.594;2024-01-30T19:07:57;9.90;99.90
25568;DHT22;13455;51.480;7.594;2024-01-30T19:10:23;9.90;99.90
25568;DHT22;13455;51.480;7.594;2024-01-30T19:12:49;9.90;99.90
25568;DHT22;13455;51.480;7.594;2024-01-30T19:15:14;9.80;99.90
25568;DHT22;13455;51.480;7.594;2024-01-30T19:17:40;9.80;99.90
25568;DHT22;13455;51.480;7.594;2024-01-30T19:20:06;9.70;99.90
25568;DHT22;13455;51.480;7.594;2024-01-30T19:22:34;9.80;99.90
25568;DHT22;13455;51.480;7.594;2024-01-30T19:25:00;9.70;99.90
25568;DHT22;13455;51.480;7.594;2024-01-30T19:27:28;9.70;99.90
25568;DHT22;13455;51.480;7.594;2024-01-30T19:29:54;9.70;99.90
25568;DHT22;13455;51.480;7.594;2024-01-30T19:32:20;9.60;99.90
25568;DHT22;13455;51.480;7.594;2024-01-30T19:34:46;9.60;99.90
25568;DHT22;13455;51.480;7.594;2024-01-30T19:37:12;9.60;99.90
25568;DHT22;13455;51.480;7.594;2024-01-30T19:39:37;9.60;99.90
25568;DHT22;13455;51.480;7.594;2024-01-30T19:42:04;9.60;99.90
25568;DHT22;13455;51.480;7.594;2024-01-30T19:44:30;9.60;99.90
25568;DHT22;13455;51.480;7.594;2024-01-30T19:46:55;9.80;99.90
25568;DHT22;13455;51.480;7.594;2024-01-30T19:49:26;9.60;99.90
25568;DHT22;13455;51.480;7.594;2024-01-30T19:51:52;9.60;99.90
25568;DHT22;13455;51.480;7.594;2024-01-30T19:54:18;9.50;99.90
25568;DHT22;13455;51.480;7.594;2024-01-30T19:56:45;9.50;99.90
25568;DHT22;13455;51.480;7.594;2024-01-30T19:59:10;9.50;99.90
25568;DHT22;13455;51.480;7.594;2024-01-30T20:01:36;9.30;99.90
25568;DHT22;13455;51.480;7.594;2024-01-30T20:04:02;9.40;99.90
25568;DHT22;13455;51.480;7.594;2024-01-30T20:06:29;9.40;99.90
25568;DHT22;13455;51.480;7.594;2024-01-30T20:08:55;9.40;99.90
25568;DHT22;13455;51.480;7.594;2024-01-30T20:11:21;9.40;99.90
25568;DHT22;13455;51.480;7.594;2024-01-30T20:13:46;9.30;99.90
25568;DHT22;13455;51.480;7.594;2024-01-30T20:16:12;8.70;99.90
25568;DHT22;13455;51.480;7.594;2024-01-30T20:18:39;9.30;99.90
25568;DHT22;13455;51.480;7.594;2024-01-30T20:21:04;9.30;99.90
25568;DHT22;13455;51.480;7.594;2024-01-30T20:23:30;9.30;99.90
25568;DHT22;13455;51.480;7.594;2024-01-30T20:25:57;9.40;99.90
25568;DHT22;13455;51.480;7.594;2024-01-30T20:28:23;9.30;99.90
25568;DHT22;13455;51.480;7.594;2024-01-30T20:30:50;9.20;99.90
25568;DHT22;13455;51.480;7.594;2024-01-30T20:33:16;9.20;99.90
25568;DHT22;13455;51.480;7.594;2024-01-30T20:35:42;9.10;99.90
25568;DHT22;13455;51.480;7.594;2024-01-30T20:38:07;9.20;99.90
25568;DHT22;13455;51.480;7.594;2024-01-30T20:40:33;9.20;99.90
25568;DHT22;13455;51.480;7.594;2024-01-30T20:42:59;9.10;99.90
25568;DHT22;13455;51.480;7.594;2024-01-30T20:45:25;8.90;99.90
25568;DHT22;13455;51.480;7.594;2024-01-30T20:47:50;9.10;99.90
25568;DHT22;13455;51.480;7.594;2024-01-30T20:50:16;9.10;99.90
25568;DHT22;13455;51.480;7.594;2024-01-30T21:24:22;9.10;99.90
25568;DHT22;13455;51.480;7.594;2024-01-30T21:26:47;8.90;99.90
25568;DHT22;13455;51.480;7.594;2024-01-30T21:29:13;8.90;99.90
25568;DHT22;13455;51.480;7.594;2024-01-30T21:31:38;8.90;99.90
25568;DHT22;13455;51.480;7.594;2024-01-30T21:34:04;8.80;99.90
25568;DHT22;13455;51.480;7.594;2024-01-30T21:36:29;8.80;99.90
25568;DHT22;13455;51.480;7.594;2024-01-30T21:38:55;8.80;99.90
25568;DHT22;13455;51.480;7.594;2024-01-30T21:41:21;8.70;99.90
25568;DHT22;13455;51.480;7.594;2024-01-30T21:43:47;8.70;99.90
25568;DHT22;13455;51.480;7.594;2024-01-30T21:46:23;8.70;99.90
25568;DHT22;13455;51.480;7.594;2024-01-30T21:48:49;8.70;99.90
25568;DHT22;13455;51.480;7.594;2024-01-30T21:51:15;8.90;99.90
25568;DHT22;13455;51.480;7.594;2024-01-30T21:53:42;8.70;99.90
25568;DHT22;13455;51.480;7.594;2024-01-30T21:56:08;8.70;99.90
25568;DHT22;13455;51.480;7.594;2024-01-30T21:58:34;8.70;99.90
25568;DHT22;13455;51.480;7.594;2024-01-30T22:01:00;8.70;99.90
25568;DHT22;13455;51.480;7.594;2024-01-30T22:03:25;8.70;99.90
25568;DHT22;13455;51.480;7.594;2024-01-30T22:05:51;8.00;99.90
25568;DHT22;13455;51.480;7.594;2024-01-30T22:08:17;8.80;99.90
25568;DHT22;13455;51.480;7.594;2024-01-30T22:10:42;8.70;99.90
25568;DHT22;13455;51.480;7.594;2024-01-30T22:13:09;8.70;99.90
25568;DHT22;13455;51.480;7.594;2024-01-30T22:15:34;8.60;99.90
25568;DHT22;13455;51.480;7.594;2024-01-30T22:18:02;8.60;99.90
25568;DHT22;13455;51.480;7.594;2024-01-30T22:20:28;8.60;99.90
25568;DHT22;13455;51.480;7.594;2024-01-30T22:22:54;8.60;99.90
25568;DHT22;13455;51.480;7.594;2024-01-30T22:25:19;8.50;99.90
25568;DHT22;13455;51.480;7.594;2024-01-30T22:27:45;8.50;99.90
25568;DHT22;13455;51.480;7.594;2024-01-30T22:30:11;8.50;99.90
25568;DHT22;13455;51.480;7.594;2024-01-30T22:32:36;8.50;99.90
25568;DHT22;13455;51.480;7.594;2024-01-30T22:35:03;8.50;99.90
25568;DHT22;13455;51.480;7.594;2024-01-30T22:37:38;8.50;99.90
25568;DHT22;13455;51.480;7.594;2024-01-30T22:40:04;8.50;99.90
25568;DHT22;13455;51.480;7.594;2024-01-30T22:42:30;8.50;99.90
25568;DHT22;13455;51.480;7.594;2024-01-30T22:44:55;8.60;99.90
25568;DHT22;13455;51.480;7.594;2024-01-30T22:47:21;8.50;99.90
25568;DHT22;13455;51.480;7.594;2024-01-30T22:49:46;8.40;99.90
25568;DHT22;13455;51.480;7.594;2024-01-30T22:52:12;8.40;99.90
25568;DHT22;13455;51.480;7.594;2024-01-30T22:54:38;8.40;99.90
25568;DHT22;13455;51.480;7.594;2024-01-30T22:57:04;8.40;99.90
25568;DHT22;13455;51.480;7.594;2024-01-30T22:59:29;8.40;99.90
25568;DHT22;13455;51.480;7.594;2024-01-30T23:01:55;8.40;99.90
25568;DHT22;13455;51.480;7.594;2024-01-30T23:04:21;8.40;99.90
25568;DHT22;13455;51.480;7.594;2024-01-30T23:06:46;8.50;99.90
25568;DHT22;13455;51.480;7.594;2024-01-30T23:09:12;8.40;99.90
25568;DHT22;13455;51.480;7.594;2024-01-30T23:11:40;8.40;99.90
25568;DHT22;13455;51.480;7.594;2024-01-30T23:14:06;8.40;99.90
25568;DHT22;13455;51.480;7.594;2024-01-30T23:16:31;8.30;99.90
25568;DHT22;13455;51.480;7.594;2024-01-30T23:18:57;8.40;99.90
25568;DHT22;13455;51.480;7.594;2024-01-30T23:21:22;8.30;99.90
25568;DHT22;13455;51.480;7.594;2024-01-30T23:23:48;8.30;99.90
25568;DHT22;13455;51.480;7.594;2024-01-30T23:26:14;8.40;99.90
25568;DHT22;13455;51.480;7.594;2024-01-30T23:28:41;8.40;99.90
25568;DHT22;13455;51.480;7.594;2024-01-30T23:31:06;8.90;99.90
25568;DHT22;13455;51.480;7.594;2024-01-30T23:33:32;8.50;99.90
25568;DHT22;13455;51.480;7.594;2024-01-30T23:35:58;8.20;99.90
25568;DHT22;13455;51.480;7.594;2024-01-30T23:38:24;8.40;99.90
25568;DHT22;13455;51.480;7.594;2024-01-30T23:40:50;8.30;99.90
25568;DHT22;13455;51.480;7.594;2024-01-30T23:43:15;8.30;99.90
25568;DHT22;13455;51.480;7.594;2024-01-30T23:45:41;8.30;99.90
